createdAt,value
2019-02-09T00:01:12.763Z,26.07
2019-02-09T00:03:41.906Z,26.63
2019-02-09T00:06:10.944Z,25.83
2019-02-09T00:08:39.994Z,26.23
2019-02-09T00:11:09.012Z,25.70
2019-02-09T00:13:38.221Z,25.10
2019-02-09T00:16:07.400Z,25.93
2019-02-09T00:18:36.487Z,25.37
2019-02-09T00:21:06.047Z,26.77
2019-02-09T00:23:35.060Z,24.13
2019-02-09T00:26:04.121Z,25.27
2019-02-09T00:28:33.532Z,26.73
2019-02-09T00:31:02.601Z,25.67
2019-02-09T00:33:31.610Z,26.13
2019-02-09T00:36:00.661Z,24.70
2019-02-09T00:38:29.731Z,24.07
2019-02-09T00:40:58.844Z,26.20
2019-02-09T00:43:27.854Z,26.47
2019-02-09T00:45:56.901Z,25.13
2019-02-09T00:48:25.911Z,27.23
2019-02-09T00:50:54.969Z,25.70
2019-02-09T00:53:23.996Z,25.90
2019-02-09T00:55:53.000Z,24.73
2019-02-09T00:58:22.055Z,26.47
2019-02-09T01:00:51.064Z,25.60
2019-02-09T01:03:20.125Z,24.80
2019-02-09T01:05:49.263Z,25.83
2019-02-09T01:08:18.321Z,26.30
2019-02-09T01:10:47.452Z,25.37
2019-02-09T01:13:16.513Z,24.27
2019-02-09T01:15:45.591Z,26.07
2019-02-09T01:18:14.652Z,25.00
2019-02-09T01:20:43.701Z,26.13
2019-02-09T01:23:12.817Z,26.17
2019-02-09T01:25:42.173Z,25.07
2019-02-09T01:28:11.179Z,24.40
2019-02-09T01:30:40.196Z,25.43
2019-02-09T01:33:09.245Z,25.07
2019-02-09T01:35:38.348Z,25.07
2019-02-09T01:38:07.592Z,26.53
2019-02-09T01:40:36.724Z,24.23
2019-02-09T01:43:05.799Z,22.57
2019-02-09T01:45:34.809Z,25.17
2019-02-09T01:48:04.416Z,24.60
2019-02-09T01:50:33.790Z,25.83
2019-02-09T01:53:02.983Z,25.03
2019-02-09T01:55:32.052Z,24.80
2019-02-09T01:58:01.062Z,24.97
2019-02-09T02:00:32.384Z,24.87
2019-02-09T02:03:01.437Z,26.57
2019-02-09T02:05:30.797Z,24.93
2019-02-09T02:08:00.005Z,24.87
2019-02-09T02:10:33.952Z,24.33
2019-02-09T02:13:04.494Z,26.07
2019-02-09T02:15:33.907Z,26.40
2019-02-09T02:18:03.228Z,25.33
2019-02-09T02:20:32.619Z,26.70
2019-02-09T02:23:02.694Z,25.73
2019-02-09T02:25:31.848Z,25.67
2019-02-09T02:28:00.860Z,26.33
2019-02-09T02:30:35.206Z,26.83
2019-02-09T02:33:04.571Z,25.97
2019-02-09T02:35:33.624Z,25.37
2019-02-09T02:38:02.653Z,25.13
2019-02-09T02:40:31.813Z,25.47
2019-02-09T02:43:00.840Z,24.63
2019-02-09T02:45:29.892Z,25.53
2019-02-09T02:47:58.901Z,25.70
2019-02-09T02:50:27.919Z,24.70
2019-02-09T02:52:56.982Z,25.53
2019-02-09T02:55:27.137Z,24.43
2019-02-09T02:57:56.268Z,27.03
2019-02-09T03:00:32.357Z,24.20
2019-02-09T03:02:57.930Z,24.47
2019-02-09T03:05:26.965Z,25.60
2019-02-09T03:07:56.525Z,24.40
2019-02-09T03:10:25.744Z,24.90
2019-02-09T03:12:54.787Z,25.13
2019-02-09T03:15:26.351Z,24.30
2019-02-09T03:17:55.633Z,24.07
2019-02-09T03:20:25.440Z,24.17
2019-02-09T03:22:54.852Z,23.77
2019-02-09T03:25:25.955Z,24.27
2019-02-09T03:27:55.029Z,25.27
2019-02-09T03:30:24.519Z,23.77
2019-02-09T03:32:53.641Z,25.10
2019-02-09T03:35:23.119Z,24.50
2019-02-09T03:37:52.129Z,25.63
2019-02-09T03:40:22.267Z,26.53
2019-02-09T03:42:51.277Z,25.93
2019-02-09T03:45:25.072Z,26.30
2019-02-09T03:47:54.509Z,26.10
2019-02-09T03:50:24.576Z,25.47
2019-02-09T03:52:53.645Z,26.17
2019-02-09T03:55:22.696Z,25.27
2019-02-09T03:57:51.712Z,26.00
2019-02-09T04:00:22.765Z,26.50
2019-02-09T04:02:51.841Z,26.67
2019-02-09T04:05:21.172Z,26.43
2019-02-09T04:07:50.297Z,26.20
2019-02-09T04:10:21.648Z,26.63
2019-02-09T04:12:50.662Z,26.00
2019-02-09T04:15:21.441Z,25.83
2019-02-09T04:17:50.606Z,26.33
2019-02-09T04:20:20.658Z,27.60
2019-02-09T04:22:49.886Z,25.43
2019-02-09T04:25:19.510Z,27.30
2019-02-09T04:27:48.517Z,26.67
2019-02-09T04:30:20.213Z,26.53
2019-02-09T04:32:49.381Z,26.67
2019-02-09T04:35:18.438Z,27.87
2019-02-09T04:37:47.448Z,26.90
2019-02-09T04:40:19.093Z,26.17
2019-02-09T04:42:48.309Z,27.47
2019-02-09T04:45:18.662Z,27.23
2019-02-09T04:47:47.767Z,26.53
2019-02-09T04:50:17.404Z,26.53
2019-02-09T04:52:46.587Z,26.83
2019-02-09T04:55:18.029Z,26.67
2019-02-09T04:57:47.093Z,25.70
2019-02-09T05:00:21.041Z,27.00
2019-02-09T05:02:50.265Z,26.40
2019-02-09T05:05:19.275Z,26.63
2019-02-09T05:07:48.637Z,24.00
2019-02-09T05:10:18.687Z,25.17
2019-02-09T05:12:48.321Z,24.67
2019-02-09T05:15:18.087Z,24.77
2019-02-09T05:17:47.216Z,24.00
2019-02-09T05:20:19.010Z,24.80
2019-02-09T05:22:48.279Z,25.20
2019-02-09T05:25:17.476Z,26.27
2019-02-09T05:27:46.784Z,25.70
2019-02-09T05:30:24.282Z,26.80
2019-02-09T05:32:53.566Z,24.70
2019-02-09T05:35:22.617Z,25.10
2019-02-09T05:37:51.690Z,26.20
2019-02-09T05:40:21.527Z,25.07
2019-02-09T05:42:50.670Z,25.23
2019-02-09T05:45:23.957Z,25.70
2019-02-09T05:47:52.971Z,24.33
2019-02-09T05:50:22.361Z,26.07
2019-02-09T05:52:51.418Z,24.20
2019-02-09T05:55:20.558Z,23.77
2019-02-09T05:57:49.722Z,25.00
2019-02-09T06:00:25.042Z,24.40
2019-02-09T06:02:54.102Z,23.77
2019-02-09T06:05:23.107Z,22.50
2019-02-09T06:07:52.139Z,21.63
2019-02-09T06:10:21.517Z,21.97
2019-02-09T06:12:50.525Z,20.30
2019-02-09T06:15:19.953Z,22.20
2019-02-09T06:17:49.291Z,21.97
2019-02-09T06:20:20.766Z,20.20
2019-02-09T06:22:49.834Z,20.90
2019-02-09T06:25:18.881Z,20.90
2019-02-09T06:27:48.240Z,20.60
2019-02-09T06:30:20.319Z,20.03
2019-02-09T06:32:49.342Z,20.57
2019-02-09T06:35:18.789Z,19.70
2019-02-09T06:37:47.857Z,21.37
2019-02-09T06:40:16.991Z,20.37
2019-02-09T06:42:46.019Z,19.90
2019-02-09T06:45:17.403Z,19.83
2019-02-09T06:47:46.419Z,19.30
2019-02-09T06:50:18.053Z,19.07
2019-02-09T06:52:47.091Z,19.33
2019-02-09T06:55:16.375Z,19.93
2019-02-09T06:57:45.428Z,19.53
2019-02-09T07:00:17.052Z,19.70
2019-02-09T07:02:46.103Z,19.97
2019-02-09T07:05:16.977Z,18.97
2019-02-09T07:07:46.089Z,19.10
2019-02-09T07:10:17.656Z,19.30
2019-02-09T07:12:46.669Z,24.20
2019-02-09T07:15:19.656Z,20.30
2019-02-09T07:17:48.668Z,20.13
2019-02-09T07:20:17.819Z,19.27
2019-02-09T07:22:46.888Z,18.70
2019-02-09T07:25:16.415Z,19.03
2019-02-09T07:27:45.451Z,20.47
2019-02-09T07:30:17.620Z,18.40
2019-02-09T07:32:46.760Z,18.13
2019-02-09T07:35:16.286Z,18.53
2019-02-09T07:37:45.384Z,17.53
2019-02-09T07:40:15.636Z,17.90
2019-02-09T07:42:44.694Z,18.50
2019-02-09T07:45:16.135Z,18.60
2019-02-09T07:47:45.156Z,18.87
2019-02-09T07:50:15.693Z,19.57
2019-02-09T07:52:44.850Z,19.40
2019-02-09T07:55:14.900Z,20.07
2019-02-09T07:57:43.985Z,18.43
2019-02-09T08:00:21.656Z,17.13
2019-02-09T08:02:50.887Z,18.00
2019-02-09T08:05:20.362Z,18.37
2019-02-09T08:07:49.380Z,16.63
2019-02-09T08:10:20.652Z,18.20
2019-02-09T08:12:49.746Z,19.23
2019-02-09T08:15:21.152Z,18.00
2019-02-09T08:17:50.161Z,17.47
2019-02-09T08:20:20.101Z,18.07
2019-02-09T08:22:49.316Z,19.73
2019-02-09T08:25:20.495Z,18.70
2019-02-09T08:27:49.644Z,19.63
2019-02-09T08:30:24.541Z,19.43
2019-02-09T08:32:53.692Z,18.50
2019-02-09T08:35:22.822Z,18.30
2019-02-09T08:37:52.264Z,17.77
2019-02-09T08:40:21.304Z,18.37
2019-02-09T08:42:50.308Z,17.87
2019-02-09T08:45:19.690Z,18.67
2019-02-09T08:47:48.840Z,19.83
2019-02-09T08:50:20.914Z,18.63
2019-02-09T08:52:50.004Z,21.47
2019-02-09T08:55:19.107Z,20.90
2019-02-09T08:57:48.117Z,20.97
2019-02-09T09:00:19.956Z,21.07
2019-02-09T09:02:49.025Z,20.70
2019-02-09T09:05:18.056Z,20.47
2019-02-09T09:07:47.423Z,20.23
2019-02-09T09:10:17.173Z,18.47
2019-02-09T09:12:46.215Z,19.50
2019-02-09T09:15:21.584Z,25.87
2019-02-09T09:17:50.597Z,18.73
2019-02-09T09:20:31.078Z,21.73
2019-02-09T09:23:00.450Z,20.37
2019-02-09T09:25:29.476Z,21.63
2019-02-09T09:27:58.816Z,18.80
2019-02-09T09:30:28.628Z,19.80
2019-02-09T09:32:57.688Z,17.90
2019-02-09T09:35:26.700Z,18.43
2019-02-09T09:37:56.054Z,18.03
2019-02-09T09:40:27.407Z,18.53
2019-02-09T09:42:56.670Z,18.13
2019-02-09T09:45:27.948Z,20.90
2019-02-09T09:47:57.031Z,17.70
2019-02-09T09:50:26.711Z,18.47
2019-02-09T09:52:55.875Z,18.87
2019-02-09T09:55:25.114Z,18.87
2019-02-09T09:57:54.150Z,20.87
2019-02-09T10:00:23.748Z,19.80
2019-02-09T10:02:52.780Z,17.43
2019-02-09T10:05:21.972Z,17.93
2019-02-09T10:07:51.129Z,18.10
2019-02-09T10:10:20.486Z,19.63
2019-02-09T10:12:49.905Z,16.60
2019-02-09T10:15:20.908Z,19.50
2019-02-09T10:17:50.073Z,16.83
2019-02-09T10:20:20.677Z,17.60
2019-02-09T10:22:49.946Z,17.90
2019-02-09T10:25:20.305Z,17.13
2019-02-09T10:27:49.863Z,18.70
2019-02-09T10:30:20.953Z,17.30
2019-02-09T10:32:50.084Z,16.07
2019-02-09T10:35:19.384Z,19.43
2019-02-09T10:37:48.539Z,18.53
2019-02-09T10:40:20.127Z,18.47
2019-02-09T10:42:49.567Z,19.00
2019-02-09T10:45:20.908Z,19.90
2019-02-09T10:47:50.171Z,21.90
2019-02-09T10:50:22.055Z,16.43
2019-02-09T10:52:51.100Z,17.20
2019-02-09T10:55:20.175Z,15.50
2019-02-09T10:57:49.519Z,16.57
2019-02-09T11:00:34.019Z,21.90
2019-02-09T11:03:03.501Z,18.37
2019-02-09T11:05:32.565Z,17.03
2019-02-09T11:08:01.580Z,16.60
2019-02-09T11:10:30.700Z,17.70
2019-02-09T11:12:59.757Z,19.67
2019-02-09T11:15:28.852Z,21.20
2019-02-09T11:17:57.935Z,17.73
2019-02-09T11:20:26.948Z,24.80
2019-02-09T11:22:55.998Z,16.50
2019-02-09T11:25:25.358Z,17.47
2019-02-09T11:27:54.616Z,16.30
2019-02-09T11:30:24.087Z,17.70
2019-02-09T11:33:00.786Z,16.47
2019-02-09T11:35:23.867Z,17.40
2019-02-09T11:37:53.255Z,15.77
2019-02-09T11:40:22.495Z,15.73
2019-02-09T11:42:51.599Z,23.33
2019-02-09T11:45:22.775Z,18.53
2019-02-09T11:47:52.015Z,16.17
2019-02-09T11:50:21.376Z,22.00
2019-02-09T11:52:50.601Z,16.47
2019-02-09T11:55:19.717Z,21.97
2019-02-09T11:57:49.373Z,22.03
2019-02-09T12:00:20.720Z,17.60
2019-02-09T12:02:50.028Z,15.60
2019-02-09T12:05:19.101Z,19.80
2019-02-09T12:07:48.246Z,16.60
2019-02-09T12:10:18.260Z,20.40
2019-02-09T12:12:47.505Z,20.80
2019-02-09T12:15:25.234Z,20.37
2019-02-09T12:17:54.360Z,17.43
2019-02-09T12:20:23.520Z,23.70
2019-02-09T12:22:52.559Z,21.20
2019-02-09T12:25:24.131Z,27.60
2019-02-09T12:27:53.150Z,23.60
2019-02-09T12:30:23.969Z,20.87
2019-02-09T12:32:53.271Z,20.80
2019-02-09T12:35:23.239Z,18.93
2019-02-09T12:37:52.682Z,19.07
2019-02-09T12:40:27.104Z,20.67
2019-02-09T12:42:56.113Z,18.07
2019-02-09T12:45:25.560Z,20.80
2019-02-09T12:47:54.630Z,20.23
2019-02-09T12:50:24.369Z,25.77
2019-02-09T12:52:53.416Z,27.50
2019-02-09T12:55:23.032Z,39.23
2019-02-09T12:57:53.040Z,21.63
2019-02-09T13:00:32.861Z,23.17
2019-02-09T13:03:08.632Z,24.40
2019-02-09T13:05:37.651Z,33.20
2019-02-09T13:08:06.897Z,23.80
2019-02-09T13:10:35.903Z,29.17
2019-02-09T13:13:05.171Z,24.00
2019-02-09T13:15:34.226Z,24.63
2019-02-09T13:18:03.312Z,20.43
2019-02-09T13:20:32.422Z,22.73
2019-02-09T13:23:01.733Z,25.30
2019-02-09T13:25:30.800Z,30.03
2019-02-09T13:27:59.812Z,29.43
2019-02-09T13:30:32.365Z,28.53
2019-02-09T13:33:01.509Z,39.90
2019-02-09T13:35:30.526Z,25.80
2019-02-09T13:37:59.537Z,21.27
2019-02-09T13:40:28.795Z,30.23
2019-02-09T13:42:57.891Z,30.30
2019-02-09T13:45:32.088Z,23.33
2019-02-09T13:48:01.133Z,27.67
2019-02-09T13:50:31.887Z,27.53
2019-02-09T13:53:00.990Z,30.87
2019-02-09T13:55:30.007Z,24.97
2019-02-09T13:57:59.251Z,34.23
2019-02-09T14:00:28.617Z,26.70
2019-02-09T14:02:57.966Z,28.57
2019-02-09T14:05:26.960Z,27.20
2019-02-09T14:07:56.061Z,26.10
2019-02-09T14:10:25.509Z,29.43
2019-02-09T14:12:54.722Z,33.13
2019-02-09T14:15:28.370Z,26.50
2019-02-09T14:17:58.696Z,31.43
2019-02-09T14:20:27.750Z,22.80
2019-02-09T14:22:57.258Z,30.70
2019-02-09T14:25:26.376Z,37.10
2019-02-09T14:27:58.331Z,30.30
2019-02-09T14:30:28.398Z,22.00
2019-02-09T14:32:57.403Z,35.40
2019-02-09T14:35:26.916Z,25.63
2019-02-09T14:37:56.156Z,28.43
2019-02-09T14:40:27.426Z,27.27
2019-02-09T14:42:56.475Z,33.70
2019-02-09T14:45:28.153Z,36.33
2019-02-09T14:47:57.201Z,25.00
2019-02-09T14:50:26.248Z,36.83
2019-02-09T14:52:55.265Z,24.33
2019-02-09T14:55:29.553Z,23.40
2019-02-09T14:57:58.616Z,23.73
2019-02-09T15:00:29.978Z,28.43
2019-02-09T15:02:59.021Z,27.93
2019-02-09T15:05:28.028Z,33.60
2019-02-09T15:07:57.104Z,20.60
2019-02-09T15:10:26.107Z,25.10
2019-02-09T15:12:55.120Z,28.00
2019-02-09T15:15:26.945Z,26.87
2019-02-09T15:17:55.997Z,26.53
2019-02-09T15:20:27.762Z,28.50
2019-02-09T15:22:56.821Z,26.80
2019-02-09T15:25:25.871Z,31.23
2019-02-09T15:27:54.877Z,34.10
2019-02-09T15:30:26.108Z,26.33
2019-02-09T15:32:55.113Z,41.67
2019-02-09T15:35:24.414Z,26.00
2019-02-09T15:37:53.641Z,31.37
2019-02-09T15:40:23.302Z,37.30
2019-02-09T15:42:52.411Z,22.57
2019-02-09T15:45:21.689Z,29.63
2019-02-09T15:47:51.180Z,40.67
2019-02-09T15:50:20.394Z,23.87
2019-02-09T15:52:50.611Z,39.13
2019-02-09T15:55:20.152Z,25.13
2019-02-09T15:57:49.207Z,27.20
2019-02-09T16:00:23.325Z,31.57
2019-02-09T16:02:53.484Z,33.57
2019-02-09T16:05:22.653Z,31.20
2019-02-09T16:07:51.706Z,27.50
2019-02-09T16:10:21.074Z,42.63
2019-02-09T16:12:50.061Z,23.57
2019-02-09T16:15:21.382Z,43.27
2019-02-09T16:17:50.534Z,29.67
2019-02-09T16:20:21.004Z,39.73
2019-02-09T16:22:50.691Z,37.27
2019-02-09T16:25:19.706Z,35.03
2019-02-09T16:27:48.857Z,29.17
2019-02-09T16:30:19.488Z,33.43
2019-02-09T16:32:48.835Z,30.57
2019-02-09T16:35:19.172Z,43.00
2019-02-09T16:37:48.288Z,27.00
2019-02-09T16:40:19.101Z,39.43
2019-02-09T16:42:48.811Z,32.27
2019-02-09T16:45:29.171Z,36.23
2019-02-09T16:47:58.253Z,40.13
2019-02-09T16:50:27.265Z,36.63
2019-02-09T16:52:56.303Z,36.63
2019-02-09T16:55:25.544Z,35.17
2019-02-09T16:57:54.687Z,25.67
2019-02-09T17:00:32.965Z,35.53
2019-02-09T17:03:01.984Z,32.63
2019-02-09T17:05:31.025Z,32.17
2019-02-09T17:08:00.032Z,39.87
2019-02-09T17:10:29.129Z,35.33
2019-02-09T17:12:58.167Z,34.77
2019-02-09T17:15:27.467Z,42.23
2019-02-09T17:17:56.577Z,40.37
2019-02-09T17:20:25.804Z,46.00
2019-02-09T17:22:54.862Z,31.47
2019-02-09T17:25:23.966Z,38.83
2019-02-09T17:27:53.011Z,35.73
2019-02-09T17:30:26.467Z,36.90
2019-02-09T17:32:55.681Z,36.00
2019-02-09T17:35:26.926Z,44.37
2019-02-09T17:37:56.744Z,27.30
2019-02-09T17:40:28.149Z,37.17
2019-02-09T17:42:57.216Z,33.10
2019-02-09T17:45:32.484Z,31.10
2019-02-09T17:48:01.579Z,28.00
2019-02-09T17:50:30.643Z,37.87
2019-02-09T17:53:00.386Z,33.60
2019-02-09T17:55:29.450Z,37.53
2019-02-09T17:57:58.510Z,39.00
2019-02-09T18:00:37.004Z,36.33
2019-02-09T18:03:06.049Z,31.77
2019-02-09T18:05:35.053Z,45.60
2019-02-09T18:08:04.056Z,24.27
2019-02-09T18:10:33.154Z,30.67
2019-02-09T18:13:02.197Z,31.73
2019-02-09T18:15:31.245Z,34.60
2019-02-09T18:18:00.273Z,30.27
2019-02-09T18:20:29.321Z,32.10
2019-02-09T18:22:58.376Z,42.93
2019-02-09T18:25:27.490Z,37.07
2019-02-09T18:27:56.544Z,42.17
2019-02-09T18:30:25.656Z,25.10
2019-02-09T18:32:54.672Z,31.43
2019-02-09T18:35:23.735Z,27.13
2019-02-09T18:37:52.759Z,40.27
2019-02-09T18:40:22.368Z,30.83
2019-02-09T18:42:51.852Z,27.00
2019-02-09T18:45:25.490Z,31.53
2019-02-09T18:47:54.877Z,34.97
2019-02-09T18:50:25.658Z,29.33
2019-02-09T18:52:55.072Z,31.17
2019-02-09T18:55:24.783Z,24.67
2019-02-09T18:57:54.130Z,21.70
2019-02-09T19:00:25.325Z,37.13
2019-02-09T19:02:54.456Z,33.53
2019-02-09T19:05:23.517Z,24.33
2019-02-09T19:07:52.531Z,27.10
2019-02-09T19:10:23.441Z,37.20
2019-02-09T19:12:52.651Z,23.93
2019-02-09T19:15:22.666Z,27.00
2019-02-09T19:17:51.676Z,26.27
2019-02-09T19:20:27.701Z,25.63
2019-02-09T19:22:56.766Z,33.50
2019-02-09T19:25:25.977Z,26.80
2019-02-09T19:27:54.987Z,21.63
2019-02-09T19:30:24.054Z,31.53
2019-02-09T19:32:53.509Z,32.47
2019-02-09T19:35:22.617Z,32.27
2019-02-09T19:37:51.809Z,23.53
2019-02-09T19:40:21.257Z,30.63
2019-02-09T19:42:50.471Z,27.80
2019-02-09T19:45:29.653Z,35.13
2019-02-09T19:47:58.761Z,32.13
2019-02-09T19:50:27.841Z,29.83
2019-02-09T19:52:56.837Z,29.53
2019-02-09T19:55:27.670Z,33.67
2019-02-09T19:57:56.679Z,30.03
2019-02-09T20:00:33.940Z,25.17
2019-02-09T20:03:02.948Z,31.13
2019-02-09T20:05:32.040Z,30.90
2019-02-09T20:08:01.091Z,21.33
2019-02-09T20:10:34.785Z,24.33
2019-02-09T20:13:04.337Z,27.70
2019-02-09T20:15:33.750Z,27.13
2019-02-09T20:18:02.763Z,35.30
2019-02-09T20:20:31.819Z,27.07
2019-02-09T20:23:00.827Z,24.97
2019-02-09T20:25:29.923Z,28.57
2019-02-09T20:27:58.934Z,20.43
2019-02-09T20:30:30.002Z,19.47
2019-02-09T20:32:59.428Z,25.30
2019-02-09T20:35:28.661Z,29.20
2019-02-09T20:37:57.843Z,25.27
2019-02-09T20:40:34.784Z,34.43
2019-02-09T20:43:04.588Z,26.47
2019-02-09T20:45:34.978Z,28.13
2019-02-09T20:48:04.148Z,24.63
2019-02-09T20:50:33.171Z,27.33
2019-02-09T20:53:02.236Z,24.77
2019-02-09T20:55:31.243Z,34.43
2019-02-09T20:58:00.292Z,23.77
2019-02-09T21:00:29.384Z,31.33
2019-02-09T21:02:58.655Z,30.60
2019-02-09T21:05:35.648Z,20.40
2019-02-09T21:07:58.948Z,24.20
2019-02-09T21:10:29.121Z,34.77
2019-02-09T21:12:58.181Z,26.73
2019-02-09T21:15:28.137Z,21.20
2019-02-09T21:17:57.283Z,28.37
2019-02-09T21:20:26.313Z,34.43
2019-02-09T21:22:55.378Z,26.60
2019-02-09T21:25:26.723Z,21.67
2019-02-09T21:27:55.743Z,23.07
2019-02-09T21:30:24.835Z,31.70
2019-02-09T21:32:53.853Z,32.50
2019-02-09T21:35:23.318Z,21.50
2019-02-09T21:37:52.561Z,21.30
2019-02-09T21:40:22.814Z,37.70
2019-02-09T21:42:51.865Z,27.47
2019-02-09T21:45:22.961Z,28.97
2019-02-09T21:47:52.552Z,29.27
2019-02-09T21:50:23.601Z,27.00
2019-02-09T21:52:54.284Z,22.57
2019-02-09T21:55:23.793Z,27.23
2019-02-09T21:57:52.857Z,26.53
2019-02-09T22:00:33.338Z,23.50
2019-02-09T22:03:02.538Z,25.70
2019-02-09T22:05:31.583Z,29.73
2019-02-09T22:08:00.594Z,22.23
2019-02-09T22:10:33.948Z,27.60
2019-02-09T22:13:01.024Z,24.77
2019-02-09T22:15:38.073Z,31.43
2019-02-09T22:18:01.454Z,19.67
2019-02-09T22:20:30.488Z,31.20
2019-02-09T22:22:59.742Z,30.27
2019-02-09T22:25:29.328Z,27.87
2019-02-09T22:27:58.487Z,43.43
2019-02-09T22:30:28.385Z,22.63
2019-02-09T22:32:57.753Z,37.77
2019-02-09T22:35:27.053Z,22.83
2019-02-09T22:37:56.550Z,25.77
2019-02-09T22:40:27.773Z,28.43
2019-02-09T22:42:56.895Z,26.20
2019-02-09T22:45:26.283Z,28.50
2019-02-09T22:47:55.519Z,21.47
2019-02-09T22:50:29.785Z,21.70
2019-02-09T22:52:59.040Z,20.73
2019-02-09T22:55:28.087Z,22.03
2019-02-09T22:57:57.184Z,22.30
2019-02-09T23:00:54.717Z,22.83
2019-02-09T23:03:33.414Z,22.67
2019-02-09T23:06:39.826Z,29.73
2019-02-09T23:09:12.259Z,22.37
2019-02-09T23:11:41.336Z,24.90
2019-02-09T23:14:10.350Z,22.00
2019-02-09T23:16:39.357Z,31.17
2019-02-09T23:19:08.420Z,34.50
2019-02-09T23:21:37.431Z,27.00
2019-02-09T23:24:06.451Z,23.87
2019-02-09T23:26:35.522Z,37.53
2019-02-09T23:29:04.537Z,31.50
2019-02-09T23:31:33.614Z,24.23
2019-02-09T23:34:02.656Z,21.77
2019-02-09T23:36:31.703Z,24.47
2019-02-09T23:39:00.752Z,24.77
2019-02-09T23:41:29.813Z,26.73
2019-02-09T23:43:58.868Z,26.10
2019-02-09T23:46:27.878Z,21.43
2019-02-09T23:48:56.936Z,22.40
2019-02-09T23:51:25.951Z,26.40
2019-02-09T23:53:55.001Z,24.23
2019-02-09T23:56:24.053Z,23.00
2019-02-09T23:58:53.067Z,26.27
